createdAt,value
2018-06-08T00:01:09.746Z,21.76
2018-06-08T00:03:38.226Z,21.70
2018-06-08T00:06:06.764Z,21.70
2018-06-08T00:08:35.332Z,21.76
2018-06-08T00:11:03.811Z,21.77
2018-06-08T00:13:32.456Z,21.82
2018-06-08T00:16:00.977Z,21.84
2018-06-08T00:18:29.836Z,21.82
2018-06-08T00:20:58.566Z,21.83
2018-06-08T00:23:26.942Z,21.74
2018-06-08T00:25:55.800Z,21.76
2018-06-08T00:28:24.089Z,21.80
2018-06-08T00:30:53.065Z,21.89
2018-06-08T00:33:21.531Z,21.96
2018-06-08T00:35:49.888Z,21.98
2018-06-08T00:38:18.440Z,21.98
2018-06-08T00:40:47.021Z,21.93
2018-06-08T00:43:15.433Z,21.94
2018-06-08T00:45:43.913Z,22.02
2018-06-08T00:48:12.384Z,21.99
2018-06-08T00:50:41.158Z,21.94
2018-06-08T00:53:09.829Z,21.94
2018-06-08T00:55:38.600Z,21.90
2018-06-08T00:58:07.090Z,21.87
2018-06-08T01:00:35.592Z,21.86
2018-06-08T01:03:04.062Z,21.84
2018-06-08T01:05:32.704Z,21.86
2018-06-08T01:08:01.439Z,21.85
2018-06-08T01:10:30.241Z,21.90
2018-06-08T01:12:58.852Z,21.94
2018-06-08T01:15:28.399Z,21.95
2018-06-08T01:17:56.652Z,21.96
2018-06-08T01:20:25.272Z,22.01
2018-06-08T01:22:53.974Z,22.00
2018-06-08T01:25:22.485Z,22.00
2018-06-08T01:27:51.120Z,21.99
2018-06-08T01:30:19.387Z,21.95
2018-06-08T01:32:47.861Z,21.94
2018-06-08T01:35:16.394Z,21.97
2018-06-08T01:37:45.194Z,21.97
2018-06-08T01:40:13.951Z,22.00
2018-06-08T01:42:42.722Z,21.93
2018-06-08T01:45:11.458Z,21.91
2018-06-08T01:47:40.145Z,21.91
2018-06-08T01:50:08.761Z,21.93
2018-06-08T01:52:37.536Z,21.93
2018-06-08T01:55:06.164Z,21.88
2018-06-08T01:57:34.857Z,21.87
2018-06-08T02:00:03.593Z,21.87
2018-06-08T02:02:32.824Z,21.93
2018-06-08T02:05:01.236Z,21.82
2018-06-08T02:07:29.811Z,21.81
2018-06-08T02:09:58.299Z,21.77
2018-06-08T02:12:27.126Z,21.84
2018-06-08T02:14:55.603Z,21.83
2018-06-08T02:17:24.320Z,21.88
2018-06-08T02:19:53.062Z,21.79
2018-06-08T02:22:21.620Z,21.78
2018-06-08T02:24:49.947Z,21.81
2018-06-08T02:27:18.968Z,21.87
2018-06-08T02:29:47.426Z,21.84
2018-06-08T02:32:15.946Z,21.70
2018-06-08T02:34:44.466Z,21.69
2018-06-08T02:37:13.492Z,21.68
2018-06-08T02:39:41.955Z,21.75
2018-06-08T02:42:10.720Z,21.74
2018-06-08T02:44:39.697Z,21.80
2018-06-08T02:47:08.567Z,21.72
2018-06-08T02:49:37.130Z,21.70
2018-06-08T02:52:05.683Z,21.87
2018-06-08T02:54:34.128Z,21.70
2018-06-08T02:57:02.380Z,21.63
2018-06-08T02:59:30.879Z,21.56
2018-06-08T03:01:59.797Z,21.58
2018-06-08T03:04:28.430Z,21.55
2018-06-08T03:06:56.996Z,21.55
2018-06-08T03:09:25.676Z,21.57
2018-06-08T03:11:54.234Z,21.56
2018-06-08T03:14:22.628Z,21.58
2018-06-08T03:16:51.197Z,21.63
2018-06-08T03:19:19.603Z,21.60
2018-06-08T03:21:48.412Z,21.46
2018-06-08T03:24:16.987Z,21.42
2018-06-08T03:26:45.508Z,21.48
2018-06-08T03:29:14.048Z,21.45
2018-06-08T03:31:42.667Z,21.37
2018-06-08T03:34:11.076Z,21.47
2018-06-08T03:36:39.464Z,21.40
2018-06-08T03:39:08.613Z,21.44
2018-06-08T03:41:37.108Z,21.55
2018-06-08T03:44:05.712Z,21.48
2018-06-08T03:46:34.030Z,21.42
2018-06-08T03:49:02.778Z,21.45
2018-06-08T03:51:31.180Z,21.53
2018-06-08T03:53:59.784Z,21.57
2018-06-08T03:56:28.474Z,21.67
2018-06-08T03:58:57.090Z,21.53
2018-06-08T04:01:25.618Z,21.61
2018-06-08T04:03:54.174Z,21.55
2018-06-08T04:06:22.551Z,21.52
2018-06-08T04:08:51.018Z,21.63
2018-06-08T04:11:19.481Z,21.73
2018-06-08T04:13:47.960Z,21.55
2018-06-08T04:16:16.344Z,21.50
2018-06-08T04:18:45.120Z,21.57
2018-06-08T04:21:13.847Z,21.59
2018-06-08T04:23:42.297Z,21.72
2018-06-08T04:26:10.792Z,21.89
2018-06-08T04:28:39.163Z,21.69
2018-06-08T04:31:07.708Z,21.57
2018-06-08T04:33:35.933Z,21.55
2018-06-08T04:36:04.767Z,21.47
2018-06-08T04:38:33.755Z,21.38
2018-06-08T04:41:02.474Z,21.37
2018-06-08T04:43:30.860Z,21.27
2018-06-08T04:45:59.651Z,21.35
2018-06-08T04:48:28.277Z,21.50
2018-06-08T04:50:57.157Z,21.64
2018-06-08T04:53:28.926Z,21.63
2018-06-08T04:55:57.388Z,21.73
2018-06-08T04:58:25.880Z,21.85
2018-06-08T05:00:54.294Z,22.03
2018-06-08T05:03:22.960Z,22.10
2018-06-08T05:08:31.445Z,22.17
2018-06-08T05:11:00.358Z,22.16
2018-06-08T05:13:28.953Z,22.10
2018-06-08T05:15:57.519Z,21.88
2018-06-08T05:18:26.125Z,21.68
2018-06-08T05:20:54.681Z,21.79
2018-06-08T05:23:23.154Z,21.82
2018-06-08T05:25:51.833Z,22.10
2018-06-08T05:28:20.658Z,22.35
2018-06-08T05:30:49.270Z,22.45
2018-06-08T05:33:17.804Z,22.40
2018-06-08T05:35:46.583Z,22.37
2018-06-08T05:38:17.879Z,22.37
2018-06-08T05:40:46.551Z,22.25
2018-06-08T05:43:14.933Z,22.25
2018-06-08T05:45:43.609Z,22.11
2018-06-08T05:48:12.173Z,22.10
2018-06-08T05:50:40.681Z,22.19
2018-06-08T05:53:09.284Z,22.10
2018-06-08T05:55:38.176Z,22.09
2018-06-08T05:58:07.018Z,22.07
2018-06-08T06:00:35.680Z,22.28
2018-06-08T06:03:04.252Z,22.10
2018-06-08T06:05:32.774Z,22.36
2018-06-08T06:08:01.397Z,22.60
2018-06-08T06:10:29.983Z,22.72
2018-06-08T06:12:58.695Z,22.69
2018-06-08T06:15:27.920Z,22.74
2018-06-08T06:17:56.670Z,22.80
2018-06-08T06:20:25.166Z,22.45
2018-06-08T06:22:53.779Z,22.50
2018-06-08T06:25:22.678Z,22.73
2018-06-08T06:27:51.156Z,22.91
2018-06-08T06:30:19.845Z,22.73
2018-06-08T06:32:48.601Z,22.85
2018-06-08T06:35:18.013Z,22.94
2018-06-08T06:37:46.729Z,23.01
2018-06-08T06:40:15.224Z,22.88
2018-06-08T06:42:44.030Z,22.88
2018-06-08T06:45:12.533Z,22.99
2018-06-08T06:47:40.786Z,23.00
2018-06-08T06:50:09.377Z,23.10
2018-06-08T06:52:37.969Z,23.15
2018-06-08T06:55:06.567Z,22.91
2018-06-08T06:57:35.069Z,23.06
2018-06-08T07:00:03.825Z,23.17
2018-06-08T07:02:33.104Z,23.38
2018-06-08T07:05:01.741Z,23.64
2018-06-08T07:07:30.189Z,23.60
2018-06-08T07:09:58.752Z,23.63
2018-06-08T07:12:27.457Z,23.75
2018-06-08T07:14:56.077Z,23.93
2018-06-08T07:17:24.896Z,24.06
2018-06-08T07:19:53.302Z,24.16
2018-06-08T07:22:21.966Z,24.14
2018-06-08T07:24:50.650Z,24.18
2018-06-08T07:27:19.180Z,24.38
2018-06-08T07:29:47.884Z,24.35
2018-06-08T07:32:16.501Z,24.51
2018-06-08T07:34:45.130Z,24.35
2018-06-08T07:37:13.510Z,23.60
2018-06-08T07:39:41.902Z,23.35
2018-06-08T07:42:10.350Z,23.43
2018-06-08T07:44:39.204Z,23.02
2018-06-08T07:47:07.742Z,23.05
2018-06-08T07:49:36.295Z,22.99
2018-06-08T07:52:04.846Z,22.95
2018-06-08T07:54:33.557Z,22.98
2018-06-08T07:57:02.466Z,23.13
2018-06-08T07:59:31.614Z,23.32
2018-06-08T08:02:00.068Z,23.49
2018-06-08T08:04:28.509Z,23.25
2018-06-08T08:06:56.873Z,23.55
2018-06-08T08:09:25.292Z,23.97
2018-06-08T08:11:53.766Z,24.19
2018-06-08T08:14:22.306Z,24.44
2018-06-08T08:16:50.764Z,24.64
2018-06-08T08:19:19.414Z,24.33
2018-06-08T08:21:47.775Z,24.05
2018-06-08T08:24:16.113Z,24.14
2018-06-08T08:26:44.631Z,24.06
2018-06-08T08:29:13.436Z,23.98
2018-06-08T08:31:42.084Z,24.21
2018-06-08T08:34:10.811Z,24.27
2018-06-08T08:36:39.353Z,24.42
2018-06-08T08:39:08.717Z,24.56
2018-06-08T08:41:37.384Z,24.50
2018-06-08T08:44:06.239Z,24.55
2018-06-08T08:46:34.894Z,24.45
2018-06-08T08:49:03.740Z,24.11
2018-06-08T08:51:32.735Z,24.27
2018-06-08T08:54:01.093Z,24.16
2018-06-08T08:56:29.710Z,24.19
2018-06-08T08:58:59.672Z,23.33
2018-06-08T09:01:28.208Z,23.57
2018-06-08T09:03:56.803Z,23.97
2018-06-08T09:06:25.816Z,24.41
2018-06-08T09:08:54.189Z,23.89
2018-06-08T09:11:23.025Z,23.62
2018-06-08T09:13:51.676Z,23.82
2018-06-08T09:16:20.160Z,23.71
2018-06-08T09:18:48.588Z,23.57
2018-06-08T09:21:17.122Z,23.60
2018-06-08T09:23:45.460Z,23.97
2018-06-08T09:26:13.952Z,24.29
2018-06-08T09:28:42.548Z,24.18
2018-06-08T09:31:11.033Z,24.35
2018-06-08T09:33:39.612Z,24.28
2018-06-08T09:36:08.668Z,24.60
2018-06-08T09:38:37.232Z,24.63
2018-06-08T09:41:05.829Z,24.22
2018-06-08T09:43:35.414Z,24.49
2018-06-08T09:46:03.845Z,24.46
2018-06-08T09:48:32.689Z,24.32
2018-06-08T09:51:01.160Z,23.72
2018-06-08T09:53:29.519Z,23.36
2018-06-08T09:55:58.083Z,23.31
2018-06-08T09:58:27.585Z,23.31
2018-06-08T10:00:56.112Z,23.33
2018-06-08T10:03:24.630Z,23.34
2018-06-08T10:05:53.323Z,23.40
2018-06-08T10:08:21.937Z,23.45
2018-06-08T10:10:50.394Z,23.56
2018-06-08T10:13:19.065Z,23.58
2018-06-08T10:15:48.640Z,23.52
2018-06-08T10:18:17.125Z,23.50
2018-06-08T10:20:45.945Z,23.55
2018-06-08T10:23:14.660Z,23.40
2018-06-08T10:25:43.285Z,23.21
2018-06-08T10:28:11.803Z,23.00
2018-06-08T10:30:40.615Z,22.90
2018-06-08T10:33:09.274Z,23.03
2018-06-08T10:35:38.037Z,22.83
2018-06-08T10:38:06.390Z,22.78
2018-06-08T10:40:35.161Z,22.78
2018-06-08T10:43:04.732Z,22.78
2018-06-08T10:45:33.630Z,22.90
2018-06-08T10:48:02.333Z,22.83
2018-06-08T10:50:30.775Z,22.95
2018-06-08T10:52:59.302Z,22.75
2018-06-08T10:55:27.993Z,22.37
2018-06-08T10:57:56.370Z,22.15
2018-06-08T11:00:24.988Z,22.06
2018-06-08T11:02:53.648Z,22.24
2018-06-08T11:05:22.096Z,22.43
2018-06-08T11:07:50.757Z,22.35
2018-06-08T11:10:19.024Z,22.29
2018-06-08T11:12:47.504Z,22.21
2018-06-08T11:15:16.053Z,22.18
2018-06-08T11:17:44.633Z,22.18
2018-06-08T11:20:13.135Z,22.31
2018-06-08T11:22:41.766Z,22.55
2018-06-08T11:25:10.120Z,22.72
2018-06-08T11:27:38.597Z,22.75
2018-06-08T11:30:07.186Z,22.87
2018-06-08T11:32:35.756Z,23.01
2018-06-08T11:35:04.250Z,23.04
2018-06-08T11:37:32.928Z,23.13
2018-06-08T11:40:01.588Z,23.07
2018-06-08T11:42:30.412Z,23.10
2018-06-08T11:44:58.989Z,22.94
2018-06-08T11:47:27.673Z,22.52
2018-06-08T11:49:56.173Z,22.47
2018-06-08T11:52:24.736Z,22.27
2018-06-08T11:54:53.556Z,22.35
2018-06-08T11:57:22.206Z,22.45
2018-06-08T11:59:51.543Z,22.12
2018-06-08T12:02:20.058Z,22.21
2018-06-08T12:04:48.545Z,22.10
2018-06-08T12:07:21.878Z,22.05
2018-06-08T12:09:50.339Z,22.27
2018-06-08T12:12:19.078Z,22.14
2018-06-08T12:14:47.408Z,22.04
2018-06-08T12:17:15.873Z,22.32
2018-06-08T12:19:44.445Z,22.53
2018-06-08T12:22:12.945Z,22.60
2018-06-08T12:24:41.610Z,22.57
2018-06-08T12:27:10.009Z,22.77
2018-06-08T12:29:38.554Z,22.79
2018-06-08T12:32:06.848Z,22.80
2018-06-08T12:34:35.324Z,22.81
2018-06-08T12:37:04.152Z,23.18
2018-06-08T12:39:33.828Z,23.36
2018-06-08T12:42:02.345Z,23.59
2018-06-08T12:44:30.966Z,23.37
2018-06-08T12:46:59.553Z,23.36
2018-06-08T12:49:28.466Z,23.43
2018-06-08T12:51:57.125Z,23.57
2018-06-08T12:54:25.569Z,23.80
2018-06-08T12:56:54.532Z,24.16
2018-06-08T12:59:22.931Z,24.50
2018-06-08T13:01:51.460Z,24.45
2018-06-08T13:04:20.000Z,24.04
2018-06-08T13:06:48.638Z,24.13
2018-06-08T13:09:17.054Z,23.93
2018-06-08T13:11:45.420Z,23.93
2018-06-08T13:14:14.037Z,23.78
2018-06-08T13:16:42.646Z,23.91
2018-06-08T13:19:11.259Z,24.17
2018-06-08T13:21:39.774Z,24.25
2018-06-08T13:24:08.316Z,24.37
2018-06-08T13:26:37.521Z,24.44
2018-06-08T13:29:06.272Z,24.07
2018-06-08T13:31:34.964Z,24.03
2018-06-08T13:34:03.607Z,24.17
2018-06-08T13:36:32.417Z,24.57
2018-06-08T13:39:00.967Z,24.87
2018-06-08T13:41:29.373Z,25.10
2018-06-08T13:43:57.921Z,25.35
2018-06-08T13:46:42.225Z,25.47
2018-06-08T13:49:11.018Z,25.76
2018-06-08T13:51:39.979Z,26.20
2018-06-08T13:54:08.622Z,26.18
2018-06-08T13:56:37.076Z,26.66
2018-06-08T13:59:06.031Z,26.46
2018-06-08T14:01:34.718Z,25.87
2018-06-08T14:04:03.266Z,26.43
2018-06-08T14:06:31.843Z,25.79
2018-06-08T14:09:00.500Z,25.76
2018-06-08T14:11:28.938Z,25.73
2018-06-08T14:13:57.255Z,25.80
2018-06-08T14:16:25.728Z,25.41
2018-06-08T14:18:54.305Z,25.28
2018-06-08T14:21:22.882Z,25.02
2018-06-08T14:23:51.600Z,25.61
2018-06-08T14:26:20.263Z,25.53
2018-06-08T14:28:49.095Z,25.86
2018-06-08T14:31:17.700Z,26.33
2018-06-08T14:33:46.248Z,26.68
2018-06-08T14:36:14.978Z,26.82
2018-06-08T14:38:43.401Z,26.88
2018-06-08T14:41:11.832Z,26.32
2018-06-08T14:43:40.238Z,25.84
2018-06-08T14:46:08.794Z,25.93
2018-06-08T14:48:37.379Z,25.91
2018-06-08T14:51:06.255Z,25.91
2018-06-08T14:53:35.094Z,25.07
2018-06-08T14:56:03.808Z,24.92
2018-06-08T14:58:32.623Z,25.10
2018-06-08T15:01:01.291Z,24.90
2018-06-08T15:03:30.054Z,24.95
2018-06-08T15:05:58.656Z,24.90
2018-06-08T15:08:27.193Z,24.95
2018-06-08T15:10:55.831Z,24.86
2018-06-08T15:13:24.397Z,24.90
2018-06-08T15:15:53.375Z,25.06
2018-06-08T15:18:22.013Z,24.89
2018-06-08T15:20:50.475Z,25.06
2018-06-08T15:23:18.958Z,24.96
2018-06-08T15:25:47.394Z,24.60
2018-06-08T15:28:15.866Z,24.58
2018-06-08T15:30:44.488Z,24.49
2018-06-08T15:33:13.256Z,24.86
2018-06-08T15:35:42.029Z,25.15
2018-06-08T15:38:11.142Z,25.07
2018-06-08T15:40:39.669Z,24.34
2018-06-08T15:43:08.399Z,24.23
2018-06-08T15:45:37.059Z,24.42
2018-06-08T15:48:05.571Z,24.78
2018-06-08T15:50:34.400Z,25.17
2018-06-08T15:53:03.128Z,25.24
2018-06-08T15:55:31.768Z,25.28
2018-06-08T15:58:00.516Z,25.45
2018-06-08T16:00:28.994Z,25.11
2018-06-08T16:02:57.337Z,25.23
2018-06-08T16:05:26.061Z,25.33
2018-06-08T16:07:54.683Z,25.66
2018-06-08T16:10:23.509Z,25.81
2018-06-08T16:12:52.141Z,26.08
2018-06-08T16:15:20.976Z,26.08
2018-06-08T16:17:49.366Z,26.37
2018-06-08T16:20:18.041Z,26.59
2018-06-08T16:22:46.674Z,26.77
2018-06-08T16:25:15.228Z,26.83
2018-06-08T16:27:43.853Z,26.44
2018-06-08T16:30:12.804Z,25.89
2018-06-08T16:32:41.419Z,25.58
2018-06-08T16:35:09.958Z,25.63
2018-06-08T16:37:38.495Z,25.80
2018-06-08T16:40:07.013Z,25.84
2018-06-08T16:42:35.784Z,25.93
2018-06-08T16:45:04.345Z,25.42
2018-06-08T16:47:33.074Z,24.99
2018-06-08T16:50:01.987Z,25.20
2018-06-08T16:52:30.577Z,25.17
2018-06-08T16:54:59.428Z,25.09
2018-06-08T16:57:27.985Z,25.12
2018-06-08T16:59:56.564Z,25.20
2018-06-08T17:02:25.217Z,25.03
2018-06-08T17:04:54.330Z,25.00
2018-06-08T17:07:22.667Z,25.10
2018-06-08T17:09:51.292Z,25.27
2018-06-08T17:12:19.791Z,25.12
2018-06-08T17:14:48.277Z,24.91
2018-06-08T17:17:16.803Z,24.77
2018-06-08T17:19:46.056Z,24.60
2018-06-08T17:22:14.958Z,24.54
2018-06-08T17:24:43.576Z,24.41
2018-06-08T17:27:12.402Z,24.50
2018-06-08T17:29:41.006Z,24.31
2018-06-08T17:32:09.590Z,24.36
2018-06-08T17:34:38.113Z,24.43
2018-06-08T17:37:06.978Z,24.19
2018-06-08T17:39:35.605Z,24.25
2018-06-08T17:42:04.773Z,24.16
2018-06-08T17:44:33.401Z,24.05
2018-06-08T17:47:02.419Z,24.05
2018-06-08T17:49:30.811Z,24.00
2018-06-08T17:51:59.385Z,23.92
2018-06-08T17:54:28.241Z,23.70
2018-06-08T17:56:57.067Z,23.73
2018-06-08T17:59:25.504Z,23.59
2018-06-08T18:01:54.351Z,23.72
2018-06-08T18:04:23.111Z,23.78
2018-06-08T18:06:51.465Z,23.77
2018-06-08T18:09:20.065Z,23.71
2018-06-08T18:11:48.557Z,23.65
2018-06-08T18:14:17.188Z,23.80
2018-06-08T18:16:45.773Z,23.83
2018-06-08T18:19:14.621Z,23.81
2018-06-08T18:21:43.462Z,23.78
2018-06-08T18:24:11.889Z,23.76
2018-06-08T18:26:40.332Z,23.79
2018-06-08T18:29:09.263Z,23.82
2018-06-08T18:31:37.616Z,23.96
2018-06-08T18:34:06.426Z,23.93
2018-06-08T18:36:34.973Z,23.79
2018-06-08T18:39:05.844Z,23.55
2018-06-08T18:41:34.735Z,23.48
2018-06-08T18:44:03.241Z,23.43
2018-06-08T18:46:31.878Z,23.50
2018-06-08T18:49:00.724Z,23.49
2018-06-08T18:51:29.239Z,23.47
2018-06-08T18:53:57.885Z,23.53
2018-06-08T18:56:27.171Z,23.39
2018-06-08T18:58:55.596Z,23.40
2018-06-08T19:01:24.234Z,23.36
2018-06-08T19:03:52.752Z,23.29
2018-06-08T19:06:21.561Z,23.34
2018-06-08T19:08:50.162Z,23.26
2018-06-08T19:11:18.772Z,23.11
2018-06-08T19:13:47.372Z,23.11
2018-06-08T19:16:16.140Z,23.15
2018-06-08T19:18:44.889Z,23.11
2018-06-08T19:21:13.408Z,23.04
2018-06-08T19:23:42.100Z,23.04
2018-06-08T19:26:10.669Z,23.08
2018-06-08T19:28:39.424Z,23.10
2018-06-08T19:31:08.122Z,23.01
2018-06-08T19:33:36.651Z,22.97
2018-06-08T19:36:05.337Z,23.00
2018-06-08T19:38:33.610Z,22.88
2018-06-08T19:41:01.949Z,22.92
2018-06-08T19:43:30.757Z,22.92
2018-06-08T19:45:59.281Z,22.80
2018-06-08T19:48:27.989Z,22.71
2018-06-08T19:50:56.538Z,22.75
2018-06-08T19:53:25.079Z,22.70
2018-06-08T19:55:53.931Z,22.70
2018-06-08T19:58:22.491Z,22.68
2018-06-08T20:00:51.058Z,22.57
2018-06-08T20:03:19.595Z,22.54
2018-06-08T20:05:48.126Z,22.49
2018-06-08T20:08:17.040Z,22.49
2018-06-08T20:10:45.552Z,22.38
2018-06-08T20:13:14.066Z,22.53
2018-06-08T20:15:42.647Z,22.49
2018-06-08T20:18:11.183Z,22.49
2018-06-08T20:20:40.033Z,22.40
2018-06-08T20:23:08.754Z,22.37
2018-06-08T20:25:37.380Z,22.32
2018-06-08T20:28:05.943Z,22.38
2018-06-08T20:30:34.549Z,22.37
2018-06-08T20:33:03.344Z,22.36
2018-06-08T20:35:31.744Z,22.29
2018-06-08T20:38:00.519Z,22.41
2018-06-08T20:40:29.237Z,22.43
2018-06-08T20:42:57.866Z,22.39
2018-06-08T20:45:26.437Z,22.21
2018-06-08T20:47:54.961Z,22.24
2018-06-08T20:50:23.557Z,22.25
2018-06-08T20:52:52.196Z,22.29
2018-06-08T20:55:20.912Z,22.23
2018-06-08T20:58:00.741Z,22.32
2018-06-08T21:00:29.653Z,22.26
2018-06-08T21:02:58.212Z,22.15
2018-06-08T21:05:26.799Z,22.16
2018-06-08T21:07:55.208Z,22.21
2018-06-08T21:10:24.200Z,22.28
2018-06-08T21:12:52.761Z,22.27
2018-06-08T21:15:21.312Z,22.22
2018-06-08T21:17:49.860Z,22.13
2018-06-08T21:20:18.210Z,22.14
2018-06-08T21:22:46.839Z,22.12
2018-06-08T21:25:15.638Z,22.24
2018-06-08T21:27:44.406Z,22.16
2018-06-08T21:30:13.049Z,22.17
2018-06-08T21:32:41.658Z,22.21
2018-06-08T21:35:10.234Z,22.25
2018-06-08T21:37:38.826Z,22.25
2018-06-08T21:40:07.418Z,22.18
2018-06-08T21:42:35.848Z,22.08
2018-06-08T21:45:04.446Z,22.29
2018-06-08T21:47:33.016Z,22.32
2018-06-08T21:50:01.938Z,22.29
2018-06-08T21:52:30.462Z,22.24
2018-06-08T21:54:59.048Z,22.16
2018-06-08T21:57:27.839Z,22.09
2018-06-08T21:59:56.227Z,22.10
2018-06-08T22:02:24.819Z,22.16
2018-06-08T22:04:53.445Z,22.14
2018-06-08T22:07:22.321Z,22.11
2018-06-08T22:09:50.874Z,22.04
2018-06-08T22:12:19.517Z,22.09
2018-06-08T22:14:48.100Z,22.07
2018-06-08T22:17:17.173Z,22.03
2018-06-08T22:19:45.754Z,22.03
2018-06-08T22:22:14.604Z,22.08
2018-06-08T22:24:43.230Z,22.07
2018-06-08T22:27:12.229Z,22.06
2018-06-08T22:29:40.649Z,22.06
2018-06-08T22:32:09.017Z,22.02
2018-06-08T22:34:37.681Z,21.96
2018-06-08T22:37:06.357Z,21.99
2018-06-08T22:39:34.872Z,21.98
2018-06-08T22:42:03.609Z,21.97
2018-06-08T22:44:32.319Z,21.90
2018-06-08T22:47:01.081Z,21.76
2018-06-08T22:49:29.831Z,21.84
2018-06-08T22:51:58.228Z,21.85
2018-06-08T22:54:26.716Z,21.88
2018-06-08T22:56:55.433Z,21.80
2018-06-08T22:59:23.913Z,21.74
2018-06-08T23:01:52.494Z,21.79
2018-06-08T23:04:21.013Z,21.68
2018-06-08T23:06:49.456Z,21.65
2018-06-08T23:09:17.970Z,21.74
2018-06-08T23:11:46.538Z,21.67
2018-06-08T23:14:15.068Z,21.67
2018-06-08T23:16:43.554Z,21.73
2018-06-08T23:19:12.226Z,21.72
2018-06-08T23:21:41.161Z,21.72
2018-06-08T23:24:09.764Z,21.69
2018-06-08T23:26:38.300Z,21.76
2018-06-08T23:29:06.845Z,21.79
2018-06-08T23:31:35.644Z,21.76
2018-06-08T23:34:04.573Z,21.63
2018-06-08T23:36:33.153Z,21.54
2018-06-08T23:39:01.712Z,21.49
2018-06-08T23:41:30.399Z,21.47
2018-06-08T23:43:58.866Z,21.59
2018-06-08T23:46:27.475Z,21.60
2018-06-08T23:48:55.971Z,21.63
2018-06-08T23:51:25.008Z,21.53
2018-06-08T23:53:54.015Z,21.42
2018-06-08T23:56:23.222Z,21.44
2018-06-08T23:58:51.933Z,21.47
